Time,TemperatureF,DewpointF,PressureIn,WindDirection,WindDirectionDegrees,WindSpeedMPH,WindSpeedGustMPH,Humidity,HourlyPrecipIn,Conditions,Clouds,dailyrainin,SoftwareType,DateUTC
2013-02-06 00:08:00,34.2,31.0,29.91,NNW,338,5.0,5.0,88,0.00,,,0.00,weatherlink.com 1.10,2013-02-06 05:08:00,
2013-02-06 00:23:00,34.2,31.0,29.91,NNW,336,5.0,8.0,88,0.00,,,0.00,weatherlink.com 1.10,2013-02-06 05:23:00,
2013-02-06 00:38:00,34.4,31.0,29.91,West,263,1.0,6.0,87,0.00,,,0.00,weatherlink.com 1.10,2013-02-06 05:38:00,
2013-02-06 00:53:00,34.7,31.0,29.91,WSW,249,1.0,4.0,87,0.00,,,0.00,weatherlink.com 1.10,2013-02-06 05:53:00,
2013-02-06 01:08:00,34.7,31.0,29.91,WSW,249,0.0,1.0,87,0.00,,,0.00,weatherlink.com 1.10,2013-02-06 06:08:00,
2013-02-06 01:23:00,34.8,31.0,29.91,NNW,342,2.0,4.0,87,0.00,,,0.00,weatherlink.com 1.10,2013-02-06 06:23:00,
2013-02-06 01:38:00,34.6,31.0,29.91,NNW,330,1.0,5.0,88,0.00,,,0.00,weatherlink.com 1.10,2013-02-06 06:38:00,
2013-02-06 01:53:00,34.5,31.0,29.91,East,94,2.0,3.0,88,0.00,,,0.00,weatherlink.com 1.10,2013-02-06 06:53:00,
2013-02-06 02:09:00,34.3,31.0,29.92,East,95,0.0,1.0,88,0.00,,,0.00,weatherlink.com 1.10,2013-02-06 07:09:00,
2013-02-06 02:24:00,34.2,31.0,29.92,East,95,0.0,0.0,88,0.00,,,0.00,weatherlink.com 1.10,2013-02-06 07:24:00,
2013-02-06 02:39:00,34.0,31.0,29.92,ESE,117,0.0,1.0,89,0.00,,,0.00,weatherlink.com 1.10,2013-02-06 07:39:00,
2013-02-06 02:54:00,33.9,31.0,29.92,ESE,117,0.0,1.0,89,0.00,,,0.00,weatherlink.com 1.10,2013-02-06 07:54:00,
2013-02-06 03:09:00,33.8,31.0,29.91,ESE,117,0.0,0.0,89,0.00,,,0.00,weatherlink.com 1.10,2013-02-06 08:09:00,
2013-02-06 03:24:00,34.0,31.0,29.92,SE,132,1.0,2.0,89,0.00,,,0.00,weatherlink.com 1.10,2013-02-06 08:24:00,
2013-02-06 03:39:00,34.1,31.0,29.93,SE,132,1.0,1.0,89,0.00,,,0.00,weatherlink.com 1.10,2013-02-06 08:39:00,
2013-02-06 03:54:00,34.2,31.0,29.93,SE,145,0.0,2.0,89,0.00,,,0.00,weatherlink.com 1.10,2013-02-06 08:54:00,
2013-02-06 04:09:00,34.2,31.0,29.94,SE,145,0.0,0.0,89,0.00,,,0.00,weatherlink.com 1.10,2013-02-06 09:09:00,
2013-02-06 04:24:00,34.2,31.0,29.94,SE,145,0.0,1.0,89,0.00,,,0.00,weatherlink.com 1.10,2013-02-06 09:24:00,
2013-02-06 04:39:00,34.1,32.0,29.95,SE,145,0.0,1.0,90,0.00,,,0.00,weatherlink.com 1.10,2013-02-06 09:39:00,
2013-02-06 04:54:00,34.3,32.0,29.96,West,273,0.0,1.0,90,0.00,,,0.00,weatherlink.com 1.10,2013-02-06 09:54:00,
2013-02-06 05:09:00,34.5,32.0,29.96,WSW,250,0.0,1.0,89,0.00,,,0.00,weatherlink.com 1.10,2013-02-06 10:09:00,
2013-02-06 05:24:00,34.6,32.0,29.97,West,266,0.0,2.0,89,0.00,,,0.00,weatherlink.com 1.10,2013-02-06 10:24:00,
2013-02-06 05:39:00,34.4,32.0,29.98,West,269,1.0,2.0,89,0.00,,,0.00,weatherlink.com 1.10,2013-02-06 10:39:00,
2013-02-06 05:54:00,34.9,32.0,30.00,WNW,294,4.0,4.0,88,0.00,,,0.00,weatherlink.com 1.10,2013-02-06 10:54:00,
2013-02-06 06:09:00,35.3,32.0,30.00,North,354,3.0,5.0,86,0.00,,,0.00,weatherlink.com 1.10,2013-02-06 11:09:00,
2013-02-06 06:24:00,34.6,31.0,30.02,NW,308,2.0,3.0,88,0.00,,,0.00,weatherlink.com 1.10,2013-02-06 11:24:00,
2013-02-06 06:39:00,34.2,31.0,30.02,WNW,295,0.0,1.0,89,0.00,,,0.00,weatherlink.com 1.10,2013-02-06 11:39:00,
2013-02-06 06:54:00,33.3,30.0,30.03,WNW,297,0.0,0.0,89,0.00,,,0.00,weatherlink.com 1.10,2013-02-06 11:54:00,
2013-02-06 07:09:00,33.4,31.0,30.04,WNW,293,3.0,3.0,91,0.00,,,0.00,weatherlink.com 1.10,2013-02-06 12:09:00,
2013-02-06 07:24:00,33.7,31.0,30.05,NNW,343,0.0,4.0,88,0.00,,,0.00,weatherlink.com 1.10,2013-02-06 12:24:00,
2013-02-06 07:39:00,33.9,31.0,30.06,WSW,240,1.0,2.0,88,0.00,,,0.00,weatherlink.com 1.10,2013-02-06 12:39:00,
2013-02-06 07:54:00,34.6,32.0,30.07,WSW,253,0.0,2.0,89,0.00,,,0.00,weatherlink.com 1.10,2013-02-06 12:54:00,
2013-02-06 08:09:00,35.6,33.0,30.07,NNE,27,0.0,1.0,89,0.00,,,0.00,weatherlink.com 1.10,2013-02-06 13:09:00,
2013-02-06 08:24:00,35.3,32.0,30.09,ESE,107,0.0,2.0,87,0.00,,,0.00,weatherlink.com 1.10,2013-02-06 13:24:00,
2013-02-06 08:39:00,36.0,32.0,30.10,ESE,107,0.0,1.0,84,0.00,,,0.00,weatherlink.com 1.10,2013-02-06 13:39:00,
2013-02-06 08:54:00,35.3,32.0,30.11,NE,44,0.0,2.0,88,0.00,,,0.00,weatherlink.com 1.10,2013-02-06 13:54:00,
2013-02-06 09:09:00,36.9,32.0,30.11,NW,317,3.0,5.0,82,0.00,,,0.00,weatherlink.com 1.10,2013-02-06 14:09:00,
2013-02-06 09:25:00,37.5,32.0,30.11,East,79,3.0,7.0,80,0.00,,,0.00,weatherlink.com 1.10,2013-02-06 14:25:00,
2013-02-06 09:40:00,38.2,32.0,30.12,ESE,104,1.0,3.0,78,0.00,,,0.00,weatherlink.com 1.10,2013-02-06 14:40:00,
2013-02-06 09:55:00,40.2,31.0,30.12,WNW,292,12.0,16.0,69,0.00,,,0.00,weatherlink.com 1.10,2013-02-06 14:55:00,
2013-02-06 10:10:00,40.6,30.0,30.12,WNW,298,14.0,20.0,67,0.00,,,0.00,weatherlink.com 1.10,2013-02-06 15:10:00,
2013-02-06 10:25:00,40.7,30.0,30.13,NW,309,8.0,21.0,65,0.00,,,0.00,weatherlink.com 1.10,2013-02-06 15:25:00,
2013-02-06 10:40:00,40.8,29.0,30.14,NW,316,10.0,19.0,63,0.00,,,0.00,weatherlink.com 1.10,2013-02-06 15:40:00,
2013-02-06 10:55:00,41.1,29.0,30.14,NW,315,8.0,18.0,62,0.00,,,0.00,weatherlink.com 1.10,2013-02-06 15:55:00,
2013-02-06 11:10:00,41.1,29.0,30.14,NW,304,10.0,19.0,62,0.00,,,0.00,weatherlink.com 1.10,2013-02-06 16:10:00,
2013-02-06 11:25:00,41.2,28.0,30.15,NW,308,11.0,19.0,60,0.00,,,0.00,weatherlink.com 1.10,2013-02-06 16:25:00,
2013-02-06 11:40:00,41.7,28.0,30.15,WNW,301,15.0,21.0,58,0.00,,,0.00,weatherlink.com 1.10,2013-02-06 16:40:00,
2013-02-06 11:55:00,41.5,28.0,30.15,WNW,293,18.0,26.0,58,0.00,,,0.00,weatherlink.com 1.10,2013-02-06 16:55:00,
2013-02-06 12:10:00,41.6,27.0,30.15,NW,304,20.0,24.0,57,0.00,,,0.00,weatherlink.com 1.10,2013-02-06 17:10:00,
2013-02-06 12:25:00,41.9,28.0,30.15,WNW,302,8.0,20.0,58,0.00,,,0.00,weatherlink.com 1.10,2013-02-06 17:25:00,
2013-02-06 12:40:00,41.6,27.0,30.15,WNW,293,12.0,23.0,56,0.00,,,0.00,weatherlink.com 1.10,2013-02-06 17:40:00,
2013-02-06 12:55:00,41.9,27.0,30.14,NW,316,20.0,23.0,56,0.00,,,0.00,weatherlink.com 1.10,2013-02-06 17:55:00,
2013-02-06 13:10:00,41.9,27.0,30.15,West,281,14.0,24.0,55,0.00,,,0.00,weatherlink.com 1.10,2013-02-06 18:10:00,
2013-02-06 13:25:00,42.0,26.0,30.15,WNW,296,11.0,23.0,54,0.00,,,0.00,weatherlink.com 1.10,2013-02-06 18:25:00,
2013-02-06 13:40:00,42.4,27.0,30.15,NW,318,13.0,20.0,54,0.00,,,0.00,weatherlink.com 1.10,2013-02-06 18:40:00,
2013-02-06 13:55:00,42.3,27.0,30.14,NW,311,16.0,22.0,55,0.00,,,0.00,weatherlink.com 1.10,2013-02-06 18:55:00,
2013-02-06 14:10:00,42.6,27.0,30.16,North,354,13.0,14.0,54,0.00,,,0.00,weatherlink.com 1.10,2013-02-06 19:10:00,
2013-02-06 14:25:00,42.6,26.0,30.16,NW,326,11.0,20.0,53,0.00,,,0.00,weatherlink.com 1.10,2013-02-06 19:25:00,
2013-02-06 14:40:00,42.4,27.0,30.16,NNW,335,10.0,20.0,55,0.00,,,0.00,weatherlink.com 1.10,2013-02-06 19:40:00,
2013-02-06 14:55:00,43.1,26.0,30.15,NNW,332,14.0,19.0,52,0.00,,,0.00,weatherlink.com 1.10,2013-02-06 19:55:00,
2013-02-06 15:10:00,43.0,27.0,30.16,NW,304,14.0,20.0,53,0.00,,,0.00,weatherlink.com 1.10,2013-02-06 20:10:00,
2013-02-06 15:25:00,43.2,27.0,30.17,NW,315,13.0,21.0,54,0.00,,,0.00,weatherlink.com 1.10,2013-02-06 20:25:00,
2013-02-06 15:40:00,43.3,27.0,30.17,WNW,294,9.0,22.0,53,0.00,,,0.00,weatherlink.com 1.10,2013-02-06 20:40:00,
2013-02-06 15:55:00,43.1,27.0,30.17,WNW,293,7.0,18.0,54,0.00,,,0.00,weatherlink.com 1.10,2013-02-06 20:55:00,
2013-02-06 16:10:00,43.4,27.0,30.17,WNW,296,11.0,25.0,53,0.00,,,0.00,weatherlink.com 1.10,2013-02-06 21:10:00,
2013-02-06 16:25:00,43.2,26.0,30.17,NW,311,12.0,22.0,51,0.00,,,0.00,weatherlink.com 1.10,2013-02-06 21:25:00,
2013-02-06 16:40:00,43.1,25.0,30.17,WNW,298,12.0,25.0,50,0.00,,,0.00,weatherlink.com 1.10,2013-02-06 21:40:00,
2013-02-06 16:55:00,42.9,26.0,30.18,NW,305,12.0,16.0,52,0.00,,,0.00,weatherlink.com 1.10,2013-02-06 21:55:00,
2013-02-06 17:10:00,42.5,26.0,30.19,WNW,302,12.0,19.0,52,0.00,,,0.00,weatherlink.com 1.10,2013-02-06 22:10:00,
2013-02-06 17:25:00,41.8,27.0,30.21,WNW,296,9.0,17.0,55,0.00,,,0.00,weatherlink.com 1.10,2013-02-06 22:25:00,
2013-02-06 17:40:00,41.5,26.0,30.21,NW,306,8.0,17.0,54,0.00,,,0.00,weatherlink.com 1.10,2013-02-06 22:40:00,
2013-02-06 17:55:00,41.1,26.0,30.22,NW,309,7.0,14.0,55,0.00,,,0.00,weatherlink.com 1.10,2013-02-06 22:55:00,
2013-02-06 18:11:00,40.7,25.0,30.23,NW,308,15.0,15.0,55,0.00,,,0.00,weatherlink.com 1.10,2013-02-06 23:11:00,
2013-02-06 18:26:00,40.3,26.0,30.23,WNW,301,10.0,17.0,56,0.00,,,0.00,weatherlink.com 1.10,2013-02-06 23:26:00,
2013-02-06 18:41:00,39.9,26.0,30.24,NW,304,6.0,12.0,58,0.00,,,0.00,weatherlink.com 1.10,2013-02-06 23:41:00,
2013-02-06 18:56:00,39.5,26.0,30.25,NW,308,4.0,10.0,58,0.00,,,0.00,weatherlink.com 1.10,2013-02-06 23:56:00,
2013-02-06 19:11:00,39.3,25.0,30.25,NNW,342,8.0,11.0,57,0.00,,,0.00,weatherlink.com 1.10,2013-02-07 00:11:00,
2013-02-06 19:26:00,39.1,25.0,30.25,NW,320,6.0,18.0,58,0.00,,,0.00,weatherlink.com 1.10,2013-02-07 00:26:00,
2013-02-06 19:41:00,38.7,25.0,30.26,WNW,297,4.0,9.0,58,0.00,,,0.00,weatherlink.com 1.10,2013-02-07 00:41:00,
2013-02-06 19:56:00,38.3,25.0,30.27,WNW,302,3.0,6.0,58,0.00,,,0.00,weatherlink.com 1.10,2013-02-07 00:56:00,
2013-02-06 20:11:00,38.1,25.0,30.28,NNW,330,4.0,6.0,60,0.00,,,0.00,weatherlink.com 1.10,2013-02-07 01:11:00,
2013-02-06 20:26:00,37.9,24.0,30.28,NNW,339,3.0,5.0,58,0.00,,,0.00,weatherlink.com 1.10,2013-02-07 01:26:00,
2013-02-06 20:41:00,37.6,24.0,30.29,WSW,256,1.0,4.0,59,0.00,,,0.00,weatherlink.com 1.10,2013-02-07 01:41:00,
2013-02-06 20:56:00,37.2,24.0,30.29,NNW,334,1.0,3.0,60,0.00,,,0.00,weatherlink.com 1.10,2013-02-07 01:56:00,
2013-02-06 21:11:00,37.1,24.0,30.30,North,1,1.0,5.0,59,0.00,,,0.00,weatherlink.com 1.10,2013-02-07 02:11:00,
2013-02-06 21:26:00,36.5,24.0,30.30,NNW,347,0.0,2.0,60,0.00,,,0.00,weatherlink.com 1.10,2013-02-07 02:26:00,
2013-02-06 21:41:00,36.4,23.0,30.31,North,355,3.0,3.0,59,0.00,,,0.00,weatherlink.com 1.10,2013-02-07 02:41:00,
2013-02-06 21:56:00,35.4,27.0,30.31,NNE,13,0.0,1.0,71,0.00,,,0.00,weatherlink.com 1.10,2013-02-07 02:56:00,
2013-02-06 22:11:00,34.5,24.0,30.32,ESE,113,1.0,1.0,66,0.00,,,0.00,weatherlink.com 1.10,2013-02-07 03:11:00,
2013-02-06 22:26:00,34.8,25.0,30.32,East,101,0.0,1.0,67,0.00,,,0.00,weatherlink.com 1.10,2013-02-07 03:26:00,
2013-02-06 22:41:00,33.7,26.0,30.32,ESE,102,0.0,0.0,73,0.00,,,0.00,weatherlink.com 1.10,2013-02-07 03:41:00,
2013-02-06 22:56:00,33.3,25.0,30.33,East,101,0.0,0.0,71,0.00,,,0.00,weatherlink.com 1.10,2013-02-07 03:56:00,
2013-02-06 23:11:00,33.5,25.0,30.33,ESE,102,0.0,0.0,72,0.00,,,0.00,weatherlink.com 1.10,2013-02-07 04:11:00,
2013-02-06 23:26:00,32.4,25.0,30.32,NNE,23,1.0,1.0,74,0.00,,,0.00,weatherlink.com 1.10,2013-02-07 04:26:00,
2013-02-06 23:41:00,33.5,24.0,30.32,North,1,2.0,2.0,69,0.00,,,0.00,weatherlink.com 1.10,2013-02-07 04:41:00,
2013-02-06 23:56:00,33.4,24.0,30.32,North,1,2.0,4.0,69,0.00,,,0.00,weatherlink.com 1.10,2013-02-07 04:56:00,